createdAt,value
2017-09-03T00:00:30.831Z,0
2017-09-03T00:01:40.847Z,0
2017-09-03T00:02:50.866Z,0
2017-09-03T00:04:01.206Z,0
2017-09-03T00:05:12.689Z,0
2017-09-03T00:06:23.326Z,0
2017-09-03T00:08:11.296Z,0
2017-09-03T00:09:21.660Z,0
2017-09-03T00:10:31.992Z,0
2017-09-03T00:11:42.355Z,0
2017-09-03T00:12:52.719Z,0
2017-09-03T00:14:03.104Z,0
2017-09-03T00:15:13.443Z,0
2017-09-03T00:16:23.486Z,0
2017-09-03T00:17:33.819Z,0
2017-09-03T00:18:44.160Z,0
2017-09-03T00:19:54.242Z,0
2017-09-03T00:21:04.579Z,0
2017-09-03T00:22:14.935Z,0
2017-09-03T00:23:25.284Z,0
2017-09-03T00:24:35.622Z,0
2017-09-03T00:25:45.976Z,0
2017-09-03T00:26:56.309Z,0
2017-09-03T00:28:06.316Z,0
2017-09-03T00:29:16.655Z,0
2017-09-03T00:30:27.000Z,0
2017-09-03T00:31:37.970Z,0
2017-09-03T00:32:48.335Z,0
2017-09-03T00:33:58.685Z,0
2017-09-03T00:35:09.020Z,0
2017-09-03T00:36:19.051Z,0
2017-09-03T00:37:29.384Z,0
2017-09-03T00:38:39.410Z,0
2017-09-03T00:39:49.747Z,0
2017-09-03T00:41:00.093Z,0
2017-09-03T00:42:10.440Z,0
2017-09-03T00:43:20.832Z,0
2017-09-03T00:44:31.172Z,0
2017-09-03T00:45:41.535Z,0
2017-09-03T00:46:53.324Z,0
2017-09-03T00:48:03.675Z,0
2017-09-03T00:49:13.754Z,0
2017-09-03T00:50:24.095Z,0
2017-09-03T00:51:34.113Z,0
2017-09-03T00:52:44.458Z,0
2017-09-03T00:53:56.657Z,0
2017-09-03T00:55:06.990Z,0
2017-09-03T00:56:17.003Z,0
2017-09-03T00:57:27.349Z,0
2017-09-03T00:58:36.746Z,0
2017-09-03T00:59:47.082Z,0
2017-09-03T01:00:57.637Z,0
2017-09-03T01:02:09.661Z,0
2017-09-03T01:03:21.997Z,0
2017-09-03T01:04:32.530Z,0
2017-09-03T01:05:44.336Z,0
2017-09-03T01:06:57.191Z,0
2017-09-03T01:08:07.734Z,0
2017-09-03T01:09:18.079Z,0
2017-09-03T01:10:28.406Z,0
2017-09-03T01:11:38.765Z,0
2017-09-03T01:12:50.541Z,0
2017-09-03T01:14:02.591Z,0
2017-09-03T01:15:16.260Z,0
2017-09-03T01:16:26.588Z,0
2017-09-03T01:17:39.679Z,0
2017-09-03T01:18:50.367Z,0
2017-09-03T01:20:01.522Z,0
2017-09-03T01:21:11.582Z,0
2017-09-03T01:22:23.062Z,0
2017-09-03T01:23:35.194Z,0
2017-09-03T01:24:45.701Z,0
2017-09-03T01:25:56.038Z,0
2017-09-03T01:27:06.007Z,0
2017-09-03T01:28:16.497Z,0
2017-09-03T01:29:26.835Z,0
2017-09-03T01:30:38.244Z,0
2017-09-03T01:31:50.105Z,0
2017-09-03T01:33:00.133Z,0
2017-09-03T01:34:12.296Z,0
2017-09-03T01:35:25.249Z,0
2017-09-03T01:36:35.749Z,0
2017-09-03T01:37:46.085Z,0
2017-09-03T01:38:55.814Z,0
2017-09-03T01:40:06.158Z,0
2017-09-03T01:41:16.555Z,0
2017-09-03T01:42:26.903Z,0
2017-09-03T01:43:37.240Z,0
2017-09-03T01:44:47.565Z,0
2017-09-03T01:45:57.917Z,0
2017-09-03T01:47:10.507Z,0
2017-09-03T01:48:23.175Z,0
2017-09-03T01:49:35.868Z,0
2017-09-03T01:50:46.370Z,0
2017-09-03T01:51:59.006Z,0
2017-09-03T01:53:10.243Z,0
2017-09-03T01:54:20.265Z,0
2017-09-03T01:55:30.285Z,0
2017-09-03T01:56:40.624Z,0
2017-09-03T01:57:53.117Z,0
2017-09-03T01:59:03.138Z,0
2017-09-03T02:00:13.240Z,0
2017-09-03T02:01:23.982Z,0
2017-09-03T02:02:36.265Z,0
2017-09-03T02:03:46.496Z,0
2017-09-03T02:04:56.843Z,0
2017-09-03T02:06:07.174Z,0
2017-09-03T02:07:16.919Z,0
2017-09-03T02:08:26.953Z,0
2017-09-03T02:09:38.316Z,0
2017-09-03T02:10:50.347Z,0
2017-09-03T02:12:00.570Z,0
2017-09-03T02:13:10.934Z,0
2017-09-03T02:14:21.283Z,0
2017-09-03T02:15:30.940Z,0
2017-09-03T02:16:41.547Z,0
2017-09-03T02:17:51.910Z,0
2017-09-03T02:19:02.025Z,0
2017-09-03T02:20:14.183Z,0
2017-09-03T02:21:24.577Z,0
2017-09-03T02:22:34.919Z,0
2017-09-03T02:23:47.586Z,0
2017-09-03T02:24:59.930Z,0
2017-09-03T02:26:10.118Z,0
2017-09-03T02:27:22.170Z,0
2017-09-03T02:28:33.343Z,0
2017-09-03T02:29:43.678Z,0
2017-09-03T02:30:55.341Z,0
2017-09-03T02:32:05.862Z,0
2017-09-03T02:33:15.957Z,0
2017-09-03T02:34:25.980Z,0
2017-09-03T02:35:37.208Z,0
2017-09-03T02:36:48.873Z,0
2017-09-03T02:37:58.891Z,0
2017-09-03T02:39:08.922Z,0
2017-09-03T02:40:20.113Z,0
2017-09-03T02:41:31.894Z,0
2017-09-03T02:42:42.405Z,0
2017-09-03T02:43:52.744Z,0
2017-09-03T02:45:03.832Z,0
2017-09-03T02:46:14.240Z,0
2017-09-03T02:47:25.481Z,0
2017-09-03T02:48:37.072Z,0
2017-09-03T02:49:48.361Z,0
2017-09-03T02:50:58.977Z,0
2017-09-03T02:52:09.004Z,0
2017-09-03T02:53:19.340Z,0
2017-09-03T02:54:31.096Z,0
2017-09-03T02:55:43.390Z,0
2017-09-03T02:56:53.947Z,0
2017-09-03T02:58:03.956Z,0
2017-09-03T02:59:16.512Z,0
2017-09-03T03:00:26.524Z,0
2017-09-03T03:01:36.852Z,0
2017-09-03T03:33:28.893Z,0
2017-09-03T03:34:39.208Z,0
2017-09-03T03:35:49.203Z,0
2017-09-03T03:36:59.532Z,0
2017-09-03T03:38:09.558Z,0
2017-09-03T03:39:19.900Z,0
2017-09-03T03:40:30.240Z,0
2017-09-03T03:41:40.582Z,0
2017-09-03T03:42:52.874Z,0
2017-09-03T03:44:02.577Z,0
2017-09-03T03:45:12.598Z,0
2017-09-03T03:46:22.934Z,0
2017-09-03T03:47:32.935Z,0
2017-09-03T03:48:43.293Z,0
2017-09-03T03:49:53.320Z,0
2017-09-03T03:51:03.392Z,0
2017-09-03T03:52:15.795Z,0
2017-09-03T03:53:26.130Z,0
2017-09-03T03:54:36.462Z,0
2017-09-03T03:55:46.798Z,0
2017-09-03T03:56:57.175Z,0
2017-09-03T03:58:07.199Z,0
2017-09-03T03:59:17.226Z,0
2017-09-03T04:00:27.563Z,0
2017-09-03T04:01:38.072Z,0
2017-09-03T04:02:48.468Z,0
2017-09-03T04:03:58.507Z,0
2017-09-03T04:05:08.835Z,0
2017-09-03T04:06:19.184Z,0
2017-09-03T04:07:29.538Z,0
2017-09-03T04:08:39.562Z,0
2017-09-03T04:09:49.900Z,0
2017-09-03T04:10:59.924Z,0
2017-09-03T04:12:10.254Z,0
2017-09-03T04:13:20.627Z,0
2017-09-03T04:14:30.647Z,0
2017-09-03T04:15:40.977Z,0
2017-09-03T04:16:51.011Z,0
2017-09-03T04:18:01.369Z,0
2017-09-03T04:19:13.114Z,0
2017-09-03T04:20:23.450Z,0
2017-09-03T04:21:33.477Z,0
2017-09-03T04:22:43.810Z,0
2017-09-03T04:23:53.829Z,0
2017-09-03T04:25:05.124Z,0
2017-09-03T04:26:15.516Z,0
2017-09-03T04:27:25.843Z,0
2017-09-03T04:28:35.869Z,0
2017-09-03T04:29:46.207Z,0
2017-09-03T04:30:56.233Z,0
2017-09-03T04:32:06.564Z,0
2017-09-03T04:33:16.596Z,0
2017-09-03T04:34:26.918Z,0
2017-09-03T04:35:37.241Z,0
2017-09-03T04:36:47.568Z,0
2017-09-03T04:37:57.904Z,0
2017-09-03T04:39:08.245Z,0
2017-09-03T04:40:18.268Z,0
2017-09-03T04:41:28.608Z,0
2017-09-03T04:42:38.940Z,0
2017-09-03T04:43:49.338Z,0
2017-09-03T04:44:59.687Z,5
2017-09-03T04:46:10.016Z,5
2017-09-03T04:47:20.353Z,5
2017-09-03T04:48:30.290Z,5
2017-09-03T04:49:40.311Z,5
2017-09-03T04:50:50.333Z,5
2017-09-03T04:52:01.235Z,5
2017-09-03T04:53:10.941Z,5
2017-09-03T04:54:20.967Z,5
2017-09-03T04:55:31.354Z,10
2017-09-03T04:56:41.681Z,10
2017-09-03T04:57:51.693Z,10
2017-09-03T04:59:01.709Z,10
2017-09-03T05:00:12.053Z,10
2017-09-03T05:01:22.124Z,10
2017-09-03T05:02:33.320Z,10
2017-09-03T05:03:45.401Z,10
2017-09-03T05:04:55.733Z,10
2017-09-03T05:06:05.753Z,10
2017-09-03T05:07:16.234Z,10
2017-09-03T05:08:26.576Z,10
2017-09-03T05:09:36.910Z,15
2017-09-03T05:10:46.927Z,15
2017-09-03T05:11:56.950Z,15
2017-09-03T05:13:07.327Z,15
2017-09-03T05:14:17.663Z,15
2017-09-03T05:15:27.690Z,15
2017-09-03T05:16:37.726Z,15
2017-09-03T05:17:47.766Z,15
2017-09-03T05:18:58.103Z,15
2017-09-03T05:20:08.436Z,15
2017-09-03T05:21:18.793Z,20
2017-09-03T05:22:29.139Z,20
2017-09-03T05:23:39.486Z,20
2017-09-03T05:24:49.824Z,20
2017-09-03T05:26:00.172Z,20
2017-09-03T05:27:10.532Z,20
2017-09-03T05:28:20.876Z,20
2017-09-03T05:29:31.223Z,20
2017-09-03T05:30:41.572Z,20
2017-09-03T05:31:51.603Z,20
2017-09-03T05:33:01.942Z,20
2017-09-03T05:34:12.288Z,25
2017-09-03T05:35:21.995Z,25
2017-09-03T05:36:32.021Z,25
2017-09-03T05:37:42.350Z,25
2017-09-03T05:38:52.680Z,25
2017-09-03T05:40:03.016Z,30
2017-09-03T05:41:13.368Z,30
2017-09-03T05:42:23.392Z,30
2017-09-03T05:43:33.743Z,30
2017-09-03T05:44:44.291Z,30
2017-09-03T05:45:54.623Z,30
2017-09-03T05:47:05.014Z,35
2017-09-03T05:48:15.363Z,35
2017-09-03T05:49:25.706Z,30
2017-09-03T05:50:36.057Z,30
2017-09-03T05:51:46.101Z,30
2017-09-03T05:52:56.481Z,30
2017-09-03T05:54:06.504Z,30
2017-09-03T05:55:16.826Z,30
2017-09-03T05:56:27.156Z,30
2017-09-03T05:57:37.490Z,30
2017-09-03T05:58:47.839Z,35
2017-09-03T05:59:58.194Z,30
2017-09-03T06:01:08.523Z,30
2017-09-03T06:02:18.545Z,35
2017-09-03T06:03:28.890Z,35
2017-09-03T06:04:39.236Z,35
2017-09-03T06:05:49.576Z,35
2017-09-03T06:06:59.855Z,40
2017-09-03T06:08:10.198Z,40
2017-09-03T06:09:20.542Z,40
2017-09-03T06:10:30.978Z,40
2017-09-03T06:11:41.334Z,40
2017-09-03T06:12:51.691Z,40
2017-09-03T06:14:02.027Z,40
2017-09-03T06:15:12.380Z,40
2017-09-03T06:16:22.702Z,40
2017-09-03T06:17:33.033Z,40
2017-09-03T06:18:43.050Z,40
2017-09-03T06:19:53.397Z,40
2017-09-03T06:21:03.733Z,40
2017-09-03T06:22:14.127Z,40
2017-09-03T06:23:24.712Z,45
2017-09-03T06:24:35.094Z,45
2017-09-03T06:25:45.460Z,45
2017-09-03T06:26:55.814Z,45
2017-09-03T06:28:05.610Z,50
2017-09-03T06:29:15.971Z,50
2017-09-03T06:30:25.983Z,50
2017-09-03T06:31:36.341Z,50
2017-09-03T06:32:46.677Z,55
2017-09-03T06:33:57.318Z,55
2017-09-03T06:35:07.647Z,55
2017-09-03T06:36:17.990Z,60
2017-09-03T06:37:28.324Z,60
2017-09-03T06:38:38.670Z,60
2017-09-03T06:39:48.711Z,60
2017-09-03T06:40:59.062Z,60
2017-09-03T06:42:09.851Z,60
2017-09-03T06:43:19.882Z,60
2017-09-03T06:44:30.226Z,55
2017-09-03T06:45:40.567Z,50
2017-09-03T06:46:50.918Z,45
2017-09-03T06:48:01.262Z,45
2017-09-03T06:49:11.607Z,45
2017-09-03T06:50:21.991Z,45
2017-09-03T06:51:32.065Z,50
2017-09-03T06:52:42.406Z,45
2017-09-03T06:53:52.763Z,45
2017-09-03T06:55:03.107Z,45
2017-09-03T06:56:13.142Z,45
2017-09-03T06:57:23.494Z,40
2017-09-03T06:58:33.830Z,40
2017-09-03T06:59:44.171Z,45
2017-09-03T07:00:54.516Z,45
2017-09-03T07:02:04.887Z,45
2017-09-03T07:03:14.916Z,45
2017-09-03T07:04:24.949Z,50
2017-09-03T07:05:35.286Z,55
2017-09-03T07:06:45.312Z,50
2017-09-03T07:07:55.655Z,50
2017-09-03T07:09:05.987Z,50
2017-09-03T07:10:16.329Z,60
2017-09-03T07:11:26.669Z,70
2017-09-03T07:12:36.700Z,70
2017-09-03T07:13:46.408Z,65
2017-09-03T07:14:56.758Z,65
2017-09-03T07:16:07.104Z,70
2017-09-03T07:17:17.140Z,75
2017-09-03T07:18:27.161Z,80
2017-09-03T07:19:37.511Z,85
2017-09-03T07:20:47.857Z,80
2017-09-03T07:21:58.196Z,80
2017-09-03T07:23:08.598Z,75
2017-09-03T07:24:18.945Z,75
2017-09-03T07:25:28.975Z,75
2017-09-03T07:26:39.319Z,75
2017-09-03T07:27:49.664Z,80
2017-09-03T07:29:00.080Z,85
2017-09-03T07:30:10.429Z,85
2017-09-03T07:31:20.464Z,90
2017-09-03T07:32:30.488Z,90
2017-09-03T07:33:40.847Z,95
2017-09-03T07:34:51.214Z,100
2017-09-03T07:36:01.570Z,100
2017-09-03T07:37:11.959Z,105
2017-09-03T07:38:21.998Z,105
2017-09-03T07:39:32.464Z,100
2017-09-03T07:40:43.078Z,105
2017-09-03T07:41:53.437Z,105
2017-09-03T07:43:03.488Z,110
2017-09-03T07:44:13.845Z,110
2017-09-03T07:45:24.209Z,110
2017-09-03T07:46:34.628Z,110
2017-09-03T07:47:44.972Z,110
2017-09-03T07:48:55.323Z,100
2017-09-03T07:50:05.692Z,95
2017-09-03T07:51:16.065Z,90
2017-09-03T07:52:26.096Z,85
2017-09-03T07:53:36.466Z,85
2017-09-03T07:54:46.841Z,85
2017-09-03T07:55:57.197Z,85
2017-09-03T07:57:07.559Z,85
2017-09-03T07:58:17.952Z,80
2017-09-03T07:59:28.005Z,85
2017-09-03T08:00:37.722Z,85
2017-09-03T08:01:47.752Z,85
2017-09-03T08:02:58.094Z,85
2017-09-03T08:04:08.507Z,90
2017-09-03T08:05:18.861Z,90
2017-09-03T08:06:29.213Z,95
2017-09-03T08:07:39.567Z,100
2017-09-03T08:08:49.606Z,100
2017-09-03T08:09:59.661Z,100
2017-09-03T08:11:09.693Z,100
2017-09-03T08:12:19.742Z,95
2017-09-03T08:13:30.112Z,95
2017-09-03T08:14:40.471Z,100
2017-09-03T08:15:50.873Z,110
2017-09-03T08:17:01.236Z,110
2017-09-03T08:18:11.597Z,110
2017-09-03T08:19:21.616Z,115
2017-09-03T08:20:31.969Z,120
2017-09-03T08:21:42.322Z,120
2017-09-03T08:22:52.668Z,125
2017-09-03T08:24:03.023Z,125
2017-09-03T08:25:13.373Z,130
2017-09-03T08:26:23.762Z,130
2017-09-03T08:27:34.115Z,125
2017-09-03T08:28:45.818Z,120
2017-09-03T08:29:55.536Z,110
2017-09-03T08:31:05.871Z,105
2017-09-03T08:32:16.242Z,110
2017-09-03T08:33:26.608Z,90
2017-09-03T08:34:36.978Z,95
2017-09-03T08:35:47.322Z,90
2017-09-03T08:36:57.694Z,110
2017-09-03T08:38:08.054Z,110
2017-09-03T08:39:18.098Z,115
2017-09-03T08:40:27.512Z,120
2017-09-03T08:41:37.876Z,125
2017-09-03T08:42:48.242Z,125
2017-09-03T08:43:58.573Z,125
2017-09-03T08:45:08.924Z,125
2017-09-03T08:46:18.939Z,130
2017-09-03T08:47:29.310Z,130
2017-09-03T08:48:39.390Z,135
2017-09-03T08:49:49.748Z,145
2017-09-03T08:51:00.102Z,155
2017-09-03T08:52:10.134Z,145
2017-09-03T08:53:19.864Z,145
2017-09-03T08:54:30.674Z,150
2017-09-03T08:55:41.022Z,150
2017-09-03T08:56:51.434Z,155
2017-09-03T08:58:01.471Z,165
2017-09-03T08:59:12.539Z,170
2017-09-03T09:00:22.880Z,160
2017-09-03T09:01:33.226Z,140
2017-09-03T09:02:43.609Z,135
2017-09-03T09:03:53.968Z,140
2017-09-03T09:05:04.327Z,145
2017-09-03T09:06:14.667Z,140
2017-09-03T09:07:24.687Z,135
2017-09-03T09:08:35.104Z,135
2017-09-03T09:09:45.449Z,125
2017-09-03T09:10:55.786Z,140
2017-09-03T09:12:07.388Z,150
2017-09-03T09:13:17.430Z,150
2017-09-03T09:14:27.802Z,155
2017-09-03T09:15:38.148Z,155
2017-09-03T09:16:48.499Z,165
2017-09-03T09:17:58.838Z,190
2017-09-03T09:19:09.185Z,195
2017-09-03T09:20:19.277Z,205
2017-09-03T09:21:29.605Z,220
2017-09-03T09:22:39.957Z,235
2017-09-03T09:23:50.315Z,235
2017-09-03T09:25:00.665Z,230
2017-09-03T09:26:10.427Z,235
2017-09-03T09:27:20.767Z,230
2017-09-03T09:28:31.112Z,235
2017-09-03T09:29:41.439Z,250
2017-09-03T09:30:51.781Z,260
2017-09-03T09:32:02.173Z,260
2017-09-03T09:33:12.244Z,260
2017-09-03T09:34:22.583Z,265
2017-09-03T09:35:32.621Z,260
2017-09-03T09:36:42.961Z,265
2017-09-03T09:37:53.359Z,270
2017-09-03T09:39:03.058Z,270
2017-09-03T09:40:13.389Z,265
2017-09-03T09:41:23.402Z,270
2017-09-03T09:42:33.428Z,250
2017-09-03T09:43:43.817Z,240
2017-09-03T09:44:54.160Z,235
2017-09-03T09:46:04.488Z,230
2017-09-03T09:47:14.880Z,225
2017-09-03T09:48:24.930Z,220
2017-09-03T09:49:35.326Z,205
2017-09-03T09:50:45.357Z,215
2017-09-03T09:51:55.388Z,230
2017-09-03T09:53:05.419Z,230
2017-09-03T09:54:15.773Z,235
2017-09-03T09:55:25.803Z,240
2017-09-03T09:56:36.175Z,235
2017-09-03T09:57:46.527Z,230
2017-09-03T09:58:56.560Z,230
2017-09-03T10:00:06.900Z,225
2017-09-03T10:01:17.263Z,215
2017-09-03T10:02:27.624Z,215
2017-09-03T10:03:40.271Z,225
2017-09-03T10:04:50.606Z,230
2017-09-03T10:06:00.946Z,225
2017-09-03T10:07:11.296Z,210
2017-09-03T10:08:21.643Z,180
2017-09-03T10:09:31.986Z,205
2017-09-03T10:10:42.021Z,220
2017-09-03T10:11:52.409Z,215
2017-09-03T10:13:02.444Z,215
2017-09-03T10:14:12.788Z,215
2017-09-03T10:15:22.823Z,205
2017-09-03T10:16:33.195Z,210
2017-09-03T10:17:43.583Z,230
2017-09-03T10:18:53.945Z,235
2017-09-03T10:20:04.310Z,245
2017-09-03T10:21:14.340Z,250
2017-09-03T10:22:24.409Z,240
2017-09-03T10:23:34.756Z,245
2017-09-03T10:24:45.106Z,250
2017-09-03T10:25:55.175Z,255
2017-09-03T10:27:05.244Z,255
2017-09-03T10:28:15.638Z,260
2017-09-03T10:29:25.994Z,265
2017-09-03T10:30:36.353Z,265
2017-09-03T10:31:46.715Z,265
2017-09-03T10:32:57.078Z,255
2017-09-03T10:34:07.455Z,250
2017-09-03T10:35:17.862Z,255
2017-09-03T10:36:28.216Z,255
2017-09-03T10:37:38.588Z,250
2017-09-03T10:38:48.964Z,255
2017-09-03T10:39:59.310Z,250
2017-09-03T10:41:09.684Z,240
2017-09-03T10:42:20.050Z,240
2017-09-03T10:43:30.378Z,250
2017-09-03T10:44:40.746Z,265
2017-09-03T10:45:51.086Z,280
2017-09-03T10:47:01.281Z,280
2017-09-03T10:48:11.640Z,275
2017-09-03T10:49:21.985Z,270
2017-09-03T10:50:32.028Z,265
2017-09-03T10:51:42.049Z,280
2017-09-03T10:52:52.396Z,285
2017-09-03T10:54:02.727Z,285
2017-09-03T10:55:12.771Z,280
2017-09-03T10:56:24.301Z,285
2017-09-03T10:57:34.342Z,280
2017-09-03T10:58:44.696Z,275
2017-09-03T10:59:55.090Z,275
2017-09-03T11:01:05.448Z,280
2017-09-03T11:02:15.805Z,270
2017-09-03T11:03:26.137Z,270
2017-09-03T11:04:36.218Z,260
2017-09-03T11:05:46.585Z,250
2017-09-03T11:06:56.923Z,240
2017-09-03T11:08:06.957Z,245
2017-09-03T11:09:17.317Z,245
2017-09-03T11:10:27.733Z,235
2017-09-03T11:11:37.768Z,245
2017-09-03T11:12:48.112Z,240
2017-09-03T11:13:58.138Z,250
2017-09-03T11:15:07.849Z,275
2017-09-03T11:16:18.186Z,300
2017-09-03T11:17:28.236Z,295
2017-09-03T11:18:38.250Z,290
2017-09-03T11:19:48.587Z,270
2017-09-03T11:20:58.950Z,285
2017-09-03T11:22:09.339Z,250
2017-09-03T11:23:19.691Z,255
2017-09-03T11:24:30.063Z,300
2017-09-03T11:25:40.422Z,210
2017-09-03T11:26:50.763Z,255
2017-09-03T11:28:00.844Z,265
2017-09-03T11:29:10.863Z,235
2017-09-03T11:30:20.896Z,260
2017-09-03T11:31:31.241Z,185
2017-09-03T11:32:42.741Z,230
2017-09-03T11:33:53.147Z,250
2017-09-03T11:35:03.514Z,170
2017-09-03T11:36:13.550Z,255
2017-09-03T11:37:23.909Z,295
2017-09-03T11:38:34.274Z,210
2017-09-03T11:39:44.639Z,170
2017-09-03T11:40:54.990Z,220
2017-09-03T11:42:05.037Z,310
2017-09-03T11:43:15.402Z,295
2017-09-03T11:44:25.743Z,340
2017-09-03T11:45:36.090Z,215
2017-09-03T11:46:46.139Z,235
2017-09-03T11:47:56.476Z,205
2017-09-03T11:49:06.848Z,215
2017-09-03T11:50:16.868Z,250
2017-09-03T11:51:27.295Z,350
2017-09-03T11:52:37.644Z,310
2017-09-03T11:53:47.991Z,195
2017-09-03T11:54:58.025Z,315
2017-09-03T11:56:08.387Z,305
2017-09-03T11:57:18.738Z,285
2017-09-03T11:58:29.098Z,200
2017-09-03T11:59:39.450Z,195
2017-09-03T12:00:51.110Z,295
2017-09-03T12:02:02.176Z,315
2017-09-03T12:03:12.577Z,225
2017-09-03T12:04:22.949Z,245
2017-09-03T12:05:33.296Z,225
2017-09-03T12:06:43.647Z,240
2017-09-03T12:07:53.705Z,265
2017-09-03T12:09:04.108Z,220
2017-09-03T12:10:14.452Z,235
2017-09-03T12:11:24.479Z,265
2017-09-03T12:12:33.877Z,220
2017-09-03T12:13:43.897Z,250
2017-09-03T12:14:54.291Z,290
2017-09-03T12:16:04.647Z,300
2017-09-03T12:17:14.678Z,370
2017-09-03T12:18:24.708Z,270
2017-09-03T12:19:35.032Z,270
2017-09-03T12:20:45.393Z,280
2017-09-03T12:21:55.759Z,290
2017-09-03T12:23:06.106Z,285
2017-09-03T12:24:16.187Z,305
2017-09-03T12:25:26.516Z,285
2017-09-03T12:26:36.931Z,345
2017-09-03T12:27:46.985Z,285
2017-09-03T12:28:57.336Z,280
2017-09-03T12:30:07.682Z,330
2017-09-03T12:31:18.030Z,320
2017-09-03T12:32:28.436Z,310
2017-09-03T12:33:38.781Z,295
2017-09-03T12:34:49.141Z,285
2017-09-03T12:35:59.529Z,280
2017-09-03T12:37:09.859Z,280
2017-09-03T12:38:19.956Z,275
2017-09-03T12:39:30.002Z,260
2017-09-03T12:40:40.373Z,255
2017-09-03T12:41:50.746Z,255
2017-09-03T12:43:01.093Z,250
2017-09-03T12:44:11.434Z,245
2017-09-03T12:45:21.790Z,220
2017-09-03T12:46:32.149Z,205
2017-09-03T12:47:42.179Z,210
2017-09-03T12:48:52.522Z,210
2017-09-03T12:50:02.914Z,215
2017-09-03T12:51:12.945Z,220
2017-09-03T12:52:23.291Z,215
2017-09-03T12:53:33.629Z,225
2017-09-03T12:54:43.974Z,225
2017-09-03T12:55:54.332Z,220
2017-09-03T12:57:04.368Z,215
2017-09-03T12:58:14.410Z,215
2017-09-03T12:59:24.769Z,215
2017-09-03T13:00:35.971Z,215
2017-09-03T13:01:46.364Z,220
2017-09-03T13:02:57.538Z,220
2017-09-03T13:04:08.922Z,225
2017-09-03T13:05:19.445Z,230
2017-09-03T13:06:29.786Z,230
2017-09-03T13:07:41.433Z,230
2017-09-03T13:08:52.994Z,230
2017-09-03T13:10:02.417Z,230
2017-09-03T13:11:12.460Z,230
2017-09-03T13:12:23.411Z,230
2017-09-03T13:13:33.830Z,225
2017-09-03T13:14:44.187Z,225
2017-09-03T13:15:54.528Z,220
2017-09-03T13:17:05.764Z,215
2017-09-03T13:18:16.214Z,215
2017-09-03T13:19:26.579Z,215
2017-09-03T13:20:36.925Z,210
2017-09-03T13:21:48.078Z,210
2017-09-03T13:22:58.438Z,205
2017-09-03T13:24:08.795Z,200
2017-09-03T13:25:20.767Z,190
2017-09-03T13:26:32.291Z,185
2017-09-03T13:27:42.583Z,180
2017-09-03T13:28:52.312Z,175
2017-09-03T13:30:02.948Z,175
2017-09-03T13:31:13.350Z,175
2017-09-03T13:32:23.689Z,180
2017-09-03T13:33:33.414Z,180
2017-09-03T13:34:42.805Z,180
2017-09-03T13:35:53.731Z,175
2017-09-03T13:37:04.136Z,175
2017-09-03T13:38:14.188Z,180
2017-09-03T13:39:25.886Z,180
2017-09-03T13:40:36.783Z,180
2017-09-03T13:41:48.774Z,175
2017-09-03T13:42:58.971Z,180
2017-09-03T13:44:09.511Z,180
2017-09-03T13:45:20.150Z,185
2017-09-03T13:46:30.373Z,185
2017-09-03T13:47:40.721Z,185
2017-09-03T13:48:51.427Z,185
2017-09-03T13:50:01.774Z,185
2017-09-03T13:51:12.869Z,190
2017-09-03T13:52:23.922Z,185
2017-09-03T13:53:33.956Z,190
2017-09-03T13:54:44.079Z,195
2017-09-03T13:55:55.954Z,195
2017-09-03T13:57:06.000Z,195
2017-09-03T13:58:16.022Z,195
2017-09-03T13:59:26.527Z,190
2017-09-03T14:00:37.839Z,190
2017-09-03T14:01:54.026Z,185
2017-09-03T14:03:04.403Z,190
2017-09-03T14:04:15.966Z,190
2017-09-03T14:05:26.568Z,190
2017-09-03T14:06:37.023Z,190
2017-09-03T14:07:48.129Z,190
2017-09-03T14:08:57.876Z,190
2017-09-03T14:10:10.059Z,190
2017-09-03T14:11:19.713Z,190
2017-09-03T14:12:29.483Z,190
2017-09-03T14:13:39.852Z,190
2017-09-03T14:14:51.251Z,190
2017-09-03T14:16:01.910Z,185
2017-09-03T14:17:12.006Z,185
2017-09-03T14:18:21.760Z,180
2017-09-03T14:19:33.671Z,185
2017-09-03T14:20:44.187Z,190
2017-09-03T14:21:54.720Z,190
2017-09-03T14:23:05.159Z,180
2017-09-03T14:24:15.528Z,175
2017-09-03T14:25:29.775Z,175
2017-09-03T14:26:40.383Z,175
2017-09-03T14:27:50.110Z,170
2017-09-03T14:28:59.515Z,165
2017-09-03T14:30:10.716Z,160
2017-09-03T14:31:20.771Z,155
2017-09-03T14:32:30.808Z,155
2017-09-03T14:33:40.826Z,160
2017-09-03T14:34:51.279Z,150
2017-09-03T14:36:02.786Z,155
2017-09-03T14:37:13.300Z,145
2017-09-03T14:38:23.029Z,145
2017-09-03T14:39:33.154Z,145
2017-09-03T14:40:44.680Z,150
2017-09-03T14:41:54.715Z,155
2017-09-03T14:43:04.773Z,160
2017-09-03T14:44:16.383Z,165
2017-09-03T14:45:27.715Z,170
2017-09-03T14:46:38.155Z,180
2017-09-03T14:47:48.512Z,165
2017-09-03T14:48:58.506Z,160
2017-09-03T14:50:09.007Z,165
2017-09-03T14:51:19.048Z,165
2017-09-03T14:52:29.396Z,165
2017-09-03T14:53:39.758Z,165
2017-09-03T14:54:53.293Z,165
2017-09-03T14:56:05.901Z,170
2017-09-03T14:57:16.271Z,195
2017-09-03T14:58:27.525Z,170
2017-09-03T14:59:37.890Z,165
2017-09-03T15:00:47.941Z,165
2017-09-03T15:01:57.964Z,165
2017-09-03T15:03:07.677Z,165
2017-09-03T15:04:17.753Z,160
2017-09-03T15:05:28.124Z,170
2017-09-03T15:06:38.481Z,165
2017-09-03T15:07:48.512Z,165
2017-09-03T15:08:58.539Z,165
2017-09-03T15:10:08.904Z,170
2017-09-03T15:11:19.271Z,165
2017-09-03T15:12:29.624Z,210
2017-09-03T15:13:39.660Z,195
2017-09-03T15:14:50.016Z,210
2017-09-03T15:16:02.101Z,190
2017-09-03T15:17:12.146Z,155
2017-09-03T15:18:22.547Z,155
2017-09-03T15:19:32.321Z,150
2017-09-03T15:20:42.781Z,145
2017-09-03T15:21:53.189Z,190
2017-09-03T15:23:03.572Z,130
2017-09-03T15:24:16.092Z,120
2017-09-03T15:25:26.461Z,100
2017-09-03T15:26:36.825Z,90
2017-09-03T15:27:46.574Z,75
2017-09-03T15:28:56.642Z,65
2017-09-03T15:30:07.032Z,65
2017-09-03T15:31:17.403Z,60
2017-09-03T15:32:27.443Z,55
2017-09-03T15:33:37.854Z,55
2017-09-03T15:34:47.273Z,55
2017-09-03T15:35:57.646Z,60
2017-09-03T15:37:07.933Z,65
2017-09-03T15:46:57.425Z,75
2017-09-03T15:48:07.816Z,80
2017-09-03T15:49:18.189Z,80
2017-09-03T15:50:28.549Z,85
2017-09-03T15:51:38.935Z,90
2017-09-03T15:52:48.975Z,95
2017-09-03T15:53:59.344Z,95
2017-09-03T15:55:09.942Z,90
2017-09-03T15:56:20.415Z,85
2017-09-03T15:57:30.799Z,75
2017-09-03T15:58:43.758Z,65
2017-09-03T15:59:53.884Z,60
2017-09-03T16:01:05.147Z,55
2017-09-03T16:02:15.545Z,50
2017-09-03T16:03:25.613Z,45
2017-09-03T16:04:37.922Z,45
2017-09-03T16:05:47.009Z,50
2017-09-03T16:06:56.408Z,55
2017-09-03T16:08:06.511Z,60
2017-09-03T16:09:16.892Z,50
2017-09-03T16:10:26.635Z,40
2017-09-03T16:11:37.010Z,35
2017-09-03T16:12:47.376Z,30
2017-09-03T16:13:57.806Z,30
2017-09-03T16:15:08.183Z,30
2017-09-03T16:16:18.231Z,25
2017-09-03T16:17:28.270Z,25
2017-09-03T16:18:38.342Z,25
2017-09-03T16:19:48.086Z,30
2017-09-03T16:20:58.137Z,30
2017-09-03T16:22:08.214Z,30
2017-09-03T16:23:18.252Z,35
2017-09-03T16:24:28.283Z,30
2017-09-03T16:25:38.703Z,35
2017-09-03T16:26:48.425Z,50
2017-09-03T16:27:58.134Z,45
2017-09-03T16:29:08.515Z,45
2017-09-03T16:30:18.554Z,55
2017-09-03T16:31:28.601Z,60
2017-09-03T16:32:40.239Z,55
2017-09-03T16:33:50.299Z,70
2017-09-03T16:34:59.710Z,65
2017-09-03T16:36:10.060Z,70
2017-09-03T16:37:20.469Z,80
2017-09-03T16:38:30.827Z,75
2017-09-03T16:39:41.557Z,75
2017-09-03T16:40:51.912Z,70
2017-09-03T16:42:01.985Z,60
2017-09-03T16:43:12.000Z,55
2017-09-03T16:44:22.038Z,50
2017-09-03T16:45:32.393Z,40
2017-09-03T16:46:42.112Z,40
2017-09-03T16:47:51.848Z,30
2017-09-03T16:49:02.302Z,25
2017-09-03T16:50:12.365Z,20
2017-09-03T16:51:22.722Z,15
2017-09-03T16:52:33.572Z,15
2017-09-03T16:53:43.934Z,10
2017-09-03T16:54:54.305Z,15
2017-09-03T16:56:04.652Z,15
2017-09-03T16:57:16.977Z,15
2017-09-03T16:58:27.331Z,10
2017-09-03T16:59:37.386Z,10
2017-09-03T17:00:47.495Z,10
2017-09-03T17:01:57.527Z,5
2017-09-03T17:03:07.574Z,5
2017-09-03T17:04:18.516Z,5
2017-09-03T17:05:28.889Z,5
2017-09-03T17:06:39.300Z,0
2017-09-03T17:07:53.874Z,0
2017-09-03T17:09:04.309Z,0
2017-09-03T17:10:14.664Z,0
2017-09-03T17:11:24.714Z,0
2017-09-03T17:12:34.502Z,0
2017-09-03T17:13:44.890Z,5
2017-09-03T17:14:55.369Z,5
2017-09-03T17:16:05.489Z,5
2017-09-03T17:17:15.864Z,5
2017-09-03T17:18:25.644Z,5